sensor_id;sensor_type;location;lat;lon;timestamp;pressure;altitude;pressure_sealevel;temperature;humidity
21276;BME280;36472;52.170;20.884;2023-04-07T00:00:46;100373.13;;;5.51;100.00
21276;BME280;36472;52.170;20.884;2023-04-07T00:03:20;100367.91;;;5.51;100.00
21276;BME280;36472;52.170;20.884;2023-04-07T00:05:50;100370.47;;;5.53;100.00
21276;BME280;36472;52.170;20.884;2023-04-07T00:08:19;100372.09;;;5.55;100.00
21276;BME280;36472;52.170;20.884;2023-04-07T00:10:48;100367.66;;;5.57;100.00
21276;BME280;36472;52.170;20.884;2023-04-07T00:13:17;100356.53;;;5.54;100.00
21276;BME280;36472;52.170;20.884;2023-04-07T00:15:46;100356.22;;;5.60;100.00
21276;BME280;36472;52.170;20.884;2023-04-07T00:18:15;100361.59;;;5.57;100.00
21276;BME280;36472;52.170;20.884;2023-04-07T00:20:46;100362.94;;;5.66;100.00
21276;BME280;36472;52.170;20.884;2023-04-07T00:23:15;100360.47;;;5.62;100.00
21276;BME280;36472;52.170;20.884;2023-04-07T00:25:43;100362.78;;;5.69;100.00
21276;BME280;36472;52.170;20.884;2023-04-07T00:28:13;100366.66;;;5.79;100.00
21276;BME280;36472;52.170;20.884;2023-04-07T00:30:41;100362.09;;;5.84;100.00
21276;BME280;36472;52.170;20.884;2023-04-07T00:33:11;100362.19;;;5.83;100.00
21276;BME280;36472;52.170;20.884;2023-04-07T00:35:39;100356.03;;;5.84;100.00
21276;BME280;36472;52.170;20.884;2023-04-07T00:38:10;100355.06;;;5.86;100.00
21276;BME280;36472;52.170;20.884;2023-04-07T00:40:39;100355.69;;;5.91;100.00
21276;BME280;36472;52.170;20.884;2023-04-07T00:43:08;100357.44;;;5.91;100.00
21276;BME280;36472;52.170;20.884;2023-04-07T00:45:37;100354.59;;;5.97;100.00
21276;BME280;36472;52.170;20.884;2023-04-07T00:48:06;100344.16;;;5.97;100.00
21276;BME280;36472;52.170;20.884;2023-04-07T00:50:35;100344.00;;;6.00;100.00
21276;BME280;36472;52.170;20.884;2023-04-07T00:53:05;100349.09;;;6.03;100.00
21276;BME280;36472;52.170;20.884;2023-04-07T00:55:36;100349.94;;;6.04;100.00
21276;BME280;36472;52.170;20.884;2023-04-07T00:58:05;100339.97;;;6.12;100.00
21276;BME280;36472;52.170;20.884;2023-04-07T01:00:41;100328.59;;;6.13;100.00
21276;BME280;36472;52.170;20.884;2023-04-07T01:03:18;100332.00;;;6.15;100.00
21276;BME280;36472;52.170;20.884;2023-04-07T01:05:54;100333.53;;;6.19;100.00
21276;BME280;36472;52.170;20.884;2023-04-07T01:08:37;100333.47;;;6.21;100.00
21276;BME280;36472;52.170;20.884;2023-04-07T01:11:20;100343.59;;;6.27;100.00
21276;BME280;36472;52.170;20.884;2023-04-07T01:13:53;100339.38;;;6.24;100.00
21276;BME280;36472;52.170;20.884;2023-04-07T01:16:48;100335.47;;;6.33;100.00
21276;BME280;36472;52.170;20.884;2023-04-07T01:19:35;100336.03;;;6.40;100.00
21276;BME280;36472;52.170;20.884;2023-04-07T01:22:11;100335.13;;;6.41;100.00
21276;BME280;36472;52.170;20.884;2023-04-07T01:25:05;100333.28;;;6.43;100.00
21276;BME280;36472;52.170;20.884;2023-04-07T01:27:59;100328.81;;;6.45;100.00
21276;BME280;36472;52.170;20.884;2023-04-07T01:30:40;100317.00;;;6.38;100.00
21276;BME280;36472;52.170;20.884;2023-04-07T01:33:13;100323.44;;;6.48;100.00
21276;BME280;36472;52.170;20.884;2023-04-07T01:35:43;100325.81;;;6.52;100.00
21276;BME280;36472;52.170;20.884;2023-04-07T01:38:15;100324.84;;;6.55;100.00
21276;BME280;36472;52.170;20.884;2023-04-07T01:40:46;100320.69;;;6.51;100.00
21276;BME280;36472;52.170;20.884;2023-04-07T01:43:18;100321.59;;;6.50;100.00
21276;BME280;36472;52.170;20.884;2023-04-07T01:45:50;100323.91;;;6.56;100.00
21276;BME280;36472;52.170;20.884;2023-04-07T01:48:19;100313.16;;;6.45;100.00
21276;BME280;36472;52.170;20.884;2023-04-07T01:50:50;100319.59;;;6.55;100.00
21276;BME280;36472;52.170;20.884;2023-04-07T01:53:19;100327.38;;;6.57;100.00
21276;BME280;36472;52.170;20.884;2023-04-07T01:55:49;100322.06;;;6.58;100.00
21276;BME280;36472;52.170;20.884;2023-04-07T01:58:20;100315.75;;;6.62;100.00
21276;BME280;36472;52.170;20.884;2023-04-07T02:00:51;100322.63;;;6.65;100.00
21276;BME280;36472;52.170;20.884;2023-04-07T02:03:30;100324.00;;;6.72;100.00
21276;BME280;36472;52.170;20.884;2023-04-07T02:06:06;100320.53;;;6.71;100.00
21276;BME280;36472;52.170;20.884;2023-04-07T02:08:38;100316.69;;;6.79;100.00
21276;BME280;36472;52.170;20.884;2023-04-07T02:11:11;100315.59;;;6.83;100.00
21276;BME280;36472;52.170;20.884;2023-04-07T02:13:42;100315.59;;;6.83;100.00
21276;BME280;36472;52.170;20.884;2023-04-07T02:16:16;100315.44;;;6.86;100.00
21276;BME280;36472;52.170;20.884;2023-04-07T02:18:46;100313.59;;;6.88;100.00
21276;BME280;36472;52.170;20.884;2023-04-07T02:21:17;100319.56;;;6.90;100.00
21276;BME280;36472;52.170;20.884;2023-04-07T02:23:46;100314.34;;;6.90;100.00
21276;BME280;36472;52.170;20.884;2023-04-07T02:26:15;100316.81;;;6.93;100.00
21276;BME280;36472;52.170;20.884;2023-04-07T02:28:44;100322.03;;;6.93;100.00
21276;BME280;36472;52.170;20.884;2023-04-07T02:31:14;100315.91;;;6.94;100.00
21276;BME280;36472;52.170;20.884;2023-04-07T02:33:43;100316.28;;;7.04;100.00
21276;BME280;36472;52.170;20.884;2023-04-07T02:36:13;100317.81;;;7.08;100.00
21276;BME280;36472;52.170;20.884;2023-04-07T02:38:41;100319.31;;;7.12;100.00
21276;BME280;36472;52.170;20.884;2023-04-07T02:41:10;100316.03;;;7.08;100.00
21276;BME280;36472;52.170;20.884;2023-04-07T02:43:39;100322.00;;;7.10;100.00
21276;BME280;36472;52.170;20.884;2023-04-07T02:46:09;100316.63;;;7.14;100.00
21276;BME280;36472;52.170;20.884;2023-04-07T02:48:40;100311.56;;;7.10;100.00
21276;BME280;36472;52.170;20.884;2023-04-07T02:51:09;100314.88;;;7.14;100.00
21276;BME280;36472;52.170;20.884;2023-04-07T02:53:38;100310.56;;;7.13;100.00
21276;BME280;36472;52.170;20.884;2023-04-07T02:56:07;100314.00;;;7.14;100.00
21276;BME280;36472;52.170;20.884;2023-04-07T02:58:36;100312.34;;;7.13;100.00
21276;BME280;36472;52.170;20.884;2023-04-07T03:01:06;100312.34;;;7.13;100.00
21276;BME280;36472;52.170;20.884;2023-04-07T03:03:35;100315.88;;;7.11;100.00
21276;BME280;36472;52.170;20.884;2023-04-07T03:06:21;100312.41;;;7.11;100.00
21276;BME280;36472;52.170;20.884;2023-04-07T03:09:00;100325.22;;;7.16;100.00
21276;BME280;36472;52.170;20.884;2023-04-07T03:11:29;100319.00;;;7.18;100.00
21276;BME280;36472;52.170;20.884;2023-04-07T03:13:59;100326.78;;;7.20;100.00
21276;BME280;36472;52.170;20.884;2023-04-07T03:16:31;100322.63;;;7.16;100.00
21276;BME280;36472;52.170;20.884;2023-04-07T03:19:05;100320.72;;;7.19;100.00
21276;BME280;36472;52.170;20.884;2023-04-07T03:21:40;100324.91;;;7.22;100.00
21276;BME280;36472;52.170;20.884;2023-04-07T03:24:09;100322.06;;;7.26;100.00
21276;BME280;36472;52.170;20.884;2023-04-07T03:26:38;100315.81;;;7.29;100.00
21276;BME280;36472;52.170;20.884;2023-04-07T03:29:17;100316.84;;;7.26;100.00
21276;BME280;36472;52.170;20.884;2023-04-07T03:31:47;100314.06;;;7.29;100.00
21276;BME280;36472;52.170;20.884;2023-04-07T03:34:19;100316.50;;;7.33;100.00
21276;BME280;36472;52.170;20.884;2023-04-07T03:36:50;100320.75;;;7.35;100.00
21276;BME280;36472;52.170;20.884;2023-04-07T03:39:19;100313.66;;;7.37;100.00
21276;BME280;36472;52.170;20.884;2023-04-07T03:41:50;100311.78;;;7.39;100.00
21276;BME280;36472;52.170;20.884;2023-04-07T03:44:19;100310.13;;;7.38;100.00
21276;BME280;36472;52.170;20.884;2023-04-07T03:46:48;100307.50;;;7.38;100.00
21276;BME280;36472;52.170;20.884;2023-04-07T03:49:18;100313.56;;;7.39;100.00
21276;BME280;36472;52.170;20.884;2023-04-07T03:51:51;100310.13;;;7.38;100.00
21276;BME280;36472;52.170;20.884;2023-04-07T03:54:20;100316.09;;;7.40;100.00
21276;BME280;36472;52.170;20.884;2023-04-07T03:56:49;100313.34;;;7.43;100.00
21276;BME280;36472;52.170;20.884;2023-04-07T03:59:22;100315.59;;;7.49;100.00
21276;BME280;36472;52.170;20.884;2023-04-07T04:02:01;100315.00;;;7.44;100.00
21276;BME280;36472;52.170;20.884;2023-04-07T04:04:31;100312.22;;;7.47;100.00
21276;BME280;36472;52.170;20.884;2023-04-07T04:07:02;100319.25;;;7.47;100.00
21276;BME280;36472;52.170;20.884;2023-04-07T04:09:39;100317.22;;;7.52;100.00
21276;BME280;36472;52.170;20.884;2023-04-07T04:12:08;100313.84;;;7.50;100.00
21276;BME280;36472;52.170;20.884;2023-04-07T04:14:44;100314.44;;;7.55;100.00
21276;BME280;36472;52.170;20.884;2023-04-07T04:17:15;100317.16;;;7.54;100.00
21276;BME280;36472;52.170;20.884;2023-04-07T04:19:46;100320.53;;;7.56;100.00
21276;BME280;36472;52.170;20.884;2023-04-07T04:22:27;100322.38;;;7.54;100.00
21276;BME280;36472;52.170;20.884;2023-04-07T04:24:58;100319.84;;;7.52;100.00
21276;BME280;36472;52.170;20.884;2023-04-07T04:27:28;100325.81;;;7.54;100.00
21276;BME280;36472;52.170;20.884;2023-04-07T04:30:05;100323.13;;;7.56;100.00
21276;BME280;36472;52.170;20.884;2023-04-07T04:32:44;100326.25;;;7.62;100.00
21276;BME280;36472;52.170;20.884;2023-04-07T04:35:14;100324.84;;;7.57;100.00
21276;BME280;36472;52.170;20.884;2023-04-07T04:37:56;100333.16;;;7.63;100.00
21276;BME280;36472;52.170;20.884;2023-04-07T04:40:25;100322.47;;;7.68;100.00
21276;BME280;36472;52.170;20.884;2023-04-07T04:42:54;100335.63;;;7.66;100.00
21276;BME280;36472;52.170;20.884;2023-04-07T04:45:24;100333.75;;;7.68;100.00
21276;BME280;36472;52.170;20.884;2023-04-07T04:47:53;100333.44;;;7.75;100.00
21276;BME280;36472;52.170;20.884;2023-04-07T04:50:23;100333.44;;;7.75;100.00
21276;BME280;36472;52.170;20.884;2023-04-07T04:52:53;100332.59;;;7.74;100.00
21276;BME280;36472;52.170;20.884;2023-04-07T04:55:24;100330.75;;;7.76;100.00
21276;BME280;36472;52.170;20.884;2023-04-07T04:57:54;100336.06;;;7.75;100.00
21276;BME280;36472;52.170;20.884;2023-04-07T05:00:33;100334.28;;;7.75;100.00
21276;BME280;36472;52.170;20.884;2023-04-07T05:03:06;100329.22;;;7.72;100.00
21276;BME280;36472;52.170;20.884;2023-04-07T05:05:38;100331.84;;;7.72;100.00
21276;BME280;36472;52.170;20.884;2023-04-07T05:08:10;100336.13;;;7.73;100.00
21276;BME280;36472;52.170;20.884;2023-04-07T05:10:41;100334.03;;;7.80;100.00
21276;BME280;36472;52.170;20.884;2023-04-07T05:13:14;100328.72;;;7.81;100.00
21276;BME280;36472;52.170;20.884;2023-04-07T05:15:43;100331.41;;;7.80;100.00
21276;BME280;36472;52.170;20.884;2023-04-07T05:18:13;100333.78;;;7.84;100.00
21276;BME280;36472;52.170;20.884;2023-04-07T05:20:43;100335.28;;;7.89;100.00
21276;BME280;36472;52.170;20.884;2023-04-07T05:23:12;100332.09;;;7.83;100.00
21276;BME280;36472;52.170;20.884;2023-04-07T05:25:44;100336.16;;;7.89;100.00
21276;BME280;36472;52.170;20.884;2023-04-07T05:28:13;100338.66;;;7.91;100.00
21276;BME280;36472;52.170;20.884;2023-04-07T05:30:42;100338.66;;;7.91;100.00
21276;BME280;36472;52.170;20.884;2023-04-07T05:33:12;100334.97;;;7.95;100.00
21276;BME280;36472;52.170;20.884;2023-04-07T05:35:47;100336.47;;;7.99;100.00
21276;BME280;36472;52.170;20.884;2023-04-07T05:38:16;100333.94;;;7.97;100.00
21276;BME280;36472;52.170;20.884;2023-04-07T05:40:47;100336.75;;;7.94;100.00
21276;BME280;36472;52.170;20.884;2023-04-07T05:43:26;100340.03;;;7.98;100.00
21276;BME280;36472;52.170;20.884;2023-04-07T05:45:56;100337.16;;;8.02;100.00
21276;BME280;36472;52.170;20.884;2023-04-07T05:48:25;100329.28;;;8.02;100.00
21276;BME280;36472;52.170;20.884;2023-04-07T05:50:55;100332.78;;;8.03;100.00
21276;BME280;36472;52.170;20.884;2023-04-07T05:53:24;100341.53;;;8.02;100.00
21276;BME280;36472;52.170;20.884;2023-04-07T05:55:55;100333.44;;;8.07;100.00
21276;BME280;36472;52.170;20.884;2023-04-07T05:58:38;100332.25;;;8.12;100.00
21276;BME280;36472;52.170;20.884;2023-04-07T06:01:09;100338.22;;;8.14;100.00
21276;BME280;36472;52.170;20.884;2023-04-07T06:03:38;100337.16;;;8.18;100.00
21276;BME280;36472;52.170;20.884;2023-04-07T06:06:28;100334.75;;;8.30;100.00
21276;BME280;36472;52.170;20.884;2023-04-07T06:08:58;100342.69;;;8.28;100.00
21276;BME280;36472;52.170;20.884;2023-04-07T06:11:28;100340.00;;;8.30;100.00
21276;BME280;36472;52.170;20.884;2023-04-07T06:13:58;100337.94;;;8.35;100.00
21276;BME280;36472;52.170;20.884;2023-04-07T06:16:27;100337.94;;;8.35;100.00
21276;BME280;36472;52.170;20.884;2023-04-07T06:18:57;100337.94;;;8.35;100.00
21276;BME280;36472;52.170;20.884;2023-04-07T06:21:29;100335.16;;;8.38;100.00
21276;BME280;36472;52.170;20.884;2023-04-07T06:23:58;100329.94;;;8.38;100.00
21276;BME280;36472;52.170;20.884;2023-04-07T06:26:28;100335.06;;;8.39;100.00
21276;BME280;36472;52.170;20.884;2023-04-07T06:28:58;100332.47;;;8.39;100.00
21276;BME280;36472;52.170;20.884;2023-04-07T06:31:28;100333.16;;;8.43;100.00
21276;BME280;36472;52.170;20.884;2023-04-07T06:33:57;100337.09;;;8.50;100.00
21276;BME280;36472;52.170;20.884;2023-04-07T06:36:26;100334.56;;;8.49;100.00
21276;BME280;36472;52.170;20.884;2023-04-07T06:38:55;100331.63;;;8.55;100.00
21276;BME280;36472;52.170;20.884;2023-04-07T06:41:24;100330.78;;;8.54;100.00
21276;BME280;36472;52.170;20.884;2023-04-07T06:43:55;100333.47;;;8.53;100.00
21276;BME280;36472;52.170;20.884;2023-04-07T06:46:24;100338.63;;;8.54;100.00
21276;BME280;36472;52.170;20.884;2023-04-07T06:48:53;100335.34;;;8.51;100.00
21276;BME280;36472;52.170;20.884;2023-04-07T06:51:22;100330.88;;;8.53;100.00
21276;BME280;36472;52.170;20.884;2023-04-07T06:53:51;100331.03;;;8.50;100.00
21276;BME280;36472;52.170;20.884;2023-04-07T06:56:22;100335.06;;;8.55;100.00
21276;BME280;36472;52.170;20.884;2023-04-07T06:58:51;100333.59;;;8.66;100.00
21276;BME280;36472;52.170;20.884;2023-04-07T07:01:21;100343.72;;;8.72;100.00
21276;BME280;36472;52.170;20.884;2023-04-07T07:03:51;100347.84;;;8.76;100.00
21276;BME280;36472;52.170;20.884;2023-04-07T07:06:20;100346.66;;;8.82;100.00
21276;BME280;36472;52.170;20.884;2023-04-07T07:08:49;100342.91;;;8.86;100.00
21276;BME280;36472;52.170;20.884;2023-04-07T07:11:18;100333.84;;;8.91;100.00
21276;BME280;36472;52.170;20.884;2023-04-07T07:13:47;100341.19;;;9.01;100.00
21276;BME280;36472;52.170;20.884;2023-04-07T07:16:16;100340.53;;;9.11;100.00
21276;BME280;36472;52.170;20.884;2023-04-07T07:18:47;100332.22;;;9.19;100.00
21276;BME280;36472;52.170;20.884;2023-04-07T07:21:17;100330.91;;;9.26;100.00
21276;BME280;36472;52.170;20.884;2023-04-07T07:23:46;100331.47;;;9.31;100.00
21276;BME280;36472;52.170;20.884;2023-04-07T07:26:16;100323.97;;;9.40;100.00
21276;BME280;36472;52.170;20.884;2023-04-07T07:28:45;100320.47;;;9.39;100.00
21276;BME280;36472;52.170;20.884;2023-04-07T07:31:14;100334.63;;;9.51;100.00
21276;BME280;36472;52.170;20.884;2023-04-07T07:33:44;100340.34;;;9.58;100.00
21276;BME280;36472;52.170;20.884;2023-04-07T07:36:17;100341.09;;;9.45;100.00
21276;BME280;36472;52.170;20.884;2023-04-07T07:38:49;100347.56;;;9.40;100.00
21276;BME280;36472;52.170;20.884;2023-04-07T07:41:17;100344.75;;;9.43;100.00
21276;BME280;36472;52.170;20.884;2023-04-07T07:43:47;100348.69;;;9.50;100.00
21276;BME280;36472;52.170;20.884;2023-04-07T07:46:17;100347.75;;;9.51;100.00
21276;BME280;36472;52.170;20.884;2023-04-07T07:48:46;100354.69;;;9.52;100.00
21276;BME280;36472;52.170;20.884;2023-04-07T07:51:16;100349.03;;;9.58;100.00
21276;BME280;36472;52.170;20.884;2023-04-07T07:53:46;100353.19;;;9.62;100.00
21276;BME280;36472;52.170;20.884;2023-04-07T07:56:15;100349.41;;;9.66;100.00
21276;BME280;36472;52.170;20.884;2023-04-07T07:58:44;100355.31;;;9.84;100.00
21276;BME280;36472;52.170;20.884;2023-04-07T08:01:13;100357.06;;;9.84;100.00
21276;BME280;36472;52.170;20.884;2023-04-07T08:03:42;100360.38;;;9.87;100.00
21276;BME280;36472;52.170;20.884;2023-04-07T08:06:12;100358.69;;;9.86;100.00
21276;BME280;36472;52.170;20.884;2023-04-07T08:08:42;100351.53;;;10.03;100.00
21276;BME280;36472;52.170;20.884;2023-04-07T08:11:11;100348.69;;;10.06;100.00
21276;BME280;36472;52.170;20.884;2023-04-07T08:13:41;100355.34;;;10.11;100.00
21276;BME280;36472;52.170;20.884;2023-04-07T08:16:12;100350.72;;;10.15;100.00
21276;BME280;36472;52.170;20.884;2023-04-07T08:18:41;100350.31;;;10.21;100.00
21276;BME280;36472;52.170;20.884;2023-04-07T08:21:10;100351.25;;;10.35;100.00
21276;BME280;36472;52.170;20.884;2023-04-07T08:23:39;100350.13;;;10.39;100.00
21276;BME280;36472;52.170;20.884;2023-04-07T08:26:09;100350.75;;;10.42;100.00
21276;BME280;36472;52.170;20.884;2023-04-07T08:28:38;100350.66;;;10.44;100.00
21276;BME280;36472;52.170;20.884;2023-04-07T08:31:07;100356.81;;;10.57;100.00
21276;BME280;36472;52.170;20.884;2023-04-07T08:33:37;100352.63;;;10.68;100.00
21276;BME280;36472;52.170;20.884;2023-04-07T08:36:06;100351.75;;;10.67;100.00
21276;BME280;36472;52.170;20.884;2023-04-07T08:38:35;100350.53;;;10.73;100.00
21276;BME280;36472;52.170;20.884;2023-04-07T08:41:11;100343.06;;;10.79;100.00
21276;BME280;36472;52.170;20.884;2023-04-07T08:43:43;100355.47;;;10.77;100.00
21276;BME280;36472;52.170;20.884;2023-04-07T08:46:14;100355.16;;;10.82;100.00
21276;BME280;36472;52.170;20.884;2023-04-07T08:48:51;100355.16;;;10.82;100.00
21276;BME280;36472;52.170;20.884;2023-04-07T08:51:27;100354.19;;;10.70;100.00
21276;BME280;36472;52.170;20.884;2023-04-07T08:54:05;100350.31;;;10.76;100.00
21276;BME280;36472;52.170;20.884;2023-04-07T08:56:39;100351.91;;;10.78;100.00
21276;BME280;36472;52.170;20.884;2023-04-07T08:59:12;100349.66;;;10.72;100.00
21276;BME280;36472;52.170;20.884;2023-04-07T09:01:42;100356.63;;;10.73;100.00
21276;BME280;36472;52.170;20.884;2023-04-07T09:04:11;100351.16;;;10.76;100.00
21276;BME280;36472;52.170;20.884;2023-04-07T09:06:42;100350.53;;;10.85;100.00
21276;BME280;36472;52.170;20.884;2023-04-07T09:09:11;100356.13;;;10.94;100.00
21276;BME280;36472;52.170;20.884;2023-04-07T09:11:43;100357.09;;;11.06;100.00
21276;BME280;36472;52.170;20.884;2023-04-07T09:14:12;100342.13;;;11.06;100.00
21276;BME280;36472;52.170;20.884;2023-04-07T09:16:42;100347.31;;;11.08;100.00
21276;BME280;36472;52.170;20.884;2023-04-07T09:19:11;100349.53;;;11.14;100.00
21276;BME280;36472;52.170;20.884;2023-04-07T09:21:51;100346.75;;;11.15;100.00
21276;BME280;36472;52.170;20.884;2023-04-07T09:24:22;100346.13;;;11.12;100.00
21276;BME280;36472;52.170;20.884;2023-04-07T09:27:08;100343.81;;;11.20;100.00
21276;BME280;36472;52.170;20.884;2023-04-07T09:29:41;100340.69;;;11.28;100.00
21276;BME280;36472;52.170;20.884;2023-04-07T09:32:10;100341.00;;;11.23;100.00
21276;BME280;36472;52.170;20.884;2023-04-07T09:34:40;100336.47;;;11.25;100.00
21276;BME280;36472;52.170;20.884;2023-04-07T09:37:21;100346.75;;;11.15;100.00
21276;BME280;36472;52.170;20.884;2023-04-07T09:39:52;100337.00;;;11.17;100.00
21276;BME280;36472;52.170;20.884;2023-04-07T09:42:22;100349.94;;;11.20;100.00
21276;BME280;36472;52.170;20.884;2023-04-07T09:44:53;100345.63;;;11.19;100.00
21276;BME280;36472;52.170;20.884;2023-04-07T09:47:25;100347.94;;;11.24;100.00
21276;BME280;36472;52.170;20.884;2023-04-07T09:49:56;100352.44;;;11.22;100.00
21276;BME280;36472;52.170;20.884;2023-04-07T09:52:50;100337.72;;;11.19;100.00
21276;BME280;36472;52.170;20.884;2023-04-07T09:55:21;100343.50;;;11.25;100.00
21276;BME280;36472;52.170;20.884;2023-04-07T09:57:53;100344.88;;;11.30;100.00
21276;BME280;36472;52.170;20.884;2023-04-07T10:00:24;100347.59;;;11.29;100.00
21276;BME280;36472;52.170;20.884;2023-04-07T10:02:53;100355.19;;;11.33;100.00
21276;BME280;36472;52.170;20.884;2023-04-07T10:05:24;100356.03;;;11.34;100.00
21276;BME280;36472;52.170;20.884;2023-04-07T10:07:53;100340.84;;;11.37;100.00
21276;BME280;36472;52.170;20.884;2023-04-07T10:10:23;100355.06;;;11.48;100.00
21276;BME280;36472;52.170;20.884;2023-04-07T10:12:56;100354.75;;;11.52;100.00
21276;BME280;36472;52.170;20.884;2023-04-07T10:15:26;100353.59;;;11.56;100.00
21276;BME280;36472;52.170;20.884;2023-04-07T10:17:55;100357.59;;;11.62;100.00
21276;BME280;36472;52.170;20.884;2023-04-07T10:20:25;100348.41;;;11.68;100.00
21276;BME280;36472;52.170;20.884;2023-04-07T10:23:05;100345.88;;;11.66;100.00
21276;BME280;36472;52.170;20.884;2023-04-07T10:25:39;100343.75;;;11.71;100.00
21276;BME280;36472;52.170;20.884;2023-04-07T10:28:12;100352.72;;;11.69;100.00
21276;BME280;36472;52.170;20.884;2023-04-07T10:30:42;100346.19;;;11.74;100.00
21276;BME280;36472;52.170;20.884;2023-04-07T10:33:12;100350.50;;;11.75;100.00
21276;BME280;36472;52.170;20.884;2023-04-07T10:36:04;100361.66;;;11.92;99.20
21276;BME280;36472;52.170;20.884;2023-04-07T10:38:33;100355.66;;;11.77;99.21
21276;BME280;36472;52.170;20.884;2023-04-07T10:41:38;100358.50;;;11.74;100.00
21276;BME280;36472;52.170;20.884;2023-04-07T10:44:46;100362.59;;;11.78;100.00
21276;BME280;36472;52.170;20.884;2023-04-07T10:47:19;100350.69;;;11.85;100.00
21276;BME280;36472;52.170;20.884;2023-04-07T10:50:18;100361.44;;;11.95;100.00
21276;BME280;36472;52.170;20.884;2023-04-07T10:53:00;100365.31;;;12.02;100.00
21276;BME280;36472;52.170;20.884;2023-04-07T10:55:35;100364.44;;;12.14;100.00
21276;BME280;36472;52.170;20.884;2023-04-07T10:58:15;100370.34;;;12.18;100.00
21276;BME280;36472;52.170;20.884;2023-04-07T11:01:19;100368.19;;;12.23;100.00
21276;BME280;36472;52.170;20.884;2023-04-07T11:03:55;100367.22;;;12.24;100.00
21276;BME280;36472;52.170;20.884;2023-04-07T11:06:25;100359.81;;;12.29;100.00
21276;BME280;36472;52.170;20.884;2023-04-07T11:08:55;100369.09;;;12.35;100.00
21276;BME280;36472;52.170;20.884;2023-04-07T11:11:38;100375.13;;;12.48;100.00
21276;BME280;36472;52.170;20.884;2023-04-07T11:14:08;100376.50;;;12.54;99.96
21276;BME280;36472;52.170;20.884;2023-04-07T11:16:41;100379.97;;;12.54;99.58
21276;BME280;36472;52.170;20.884;2023-04-07T11:19:12;100377.59;;;12.63;99.06
21276;BME280;36472;52.170;20.884;2023-04-07T11:21:40;100376.28;;;12.57;99.22
21276;BME280;36472;52.170;20.884;2023-04-07T11:24:10;100375.91;;;12.62;99.55
21276;BME280;36472;52.170;20.884;2023-04-07T11:26:40;100370.03;;;12.58;99.75
21276;BME280;36472;52.170;20.884;2023-04-07T11:29:11;100364.53;;;12.61;98.58
21276;BME280;36472;52.170;20.884;2023-04-07T11:31:46;100373.28;;;12.62;99.27
21276;BME280;36472;52.170;20.884;2023-04-07T11:34:16;100376.78;;;12.62;99.66
21276;BME280;36472;52.170;20.884;2023-04-07T11:36:45;100369.59;;;12.64;98.87
21276;BME280;36472;52.170;20.884;2023-04-07T11:39:19;100374.00;;;12.64;97.99
21276;BME280;36472;52.170;20.884;2023-04-07T11:41:49;100373.28;;;12.62;98.68
21276;BME280;36472;52.170;20.884;2023-04-07T11:44:19;100373.06;;;12.65;98.36
21276;BME280;36472;52.170;20.884;2023-04-07T11:46:56;100375.19;;;12.60;98.73
21276;BME280;36472;52.170;20.884;2023-04-07T11:49:27;100364.53;;;12.61;98.59
21276;BME280;36472;52.170;20.884;2023-04-07T11:52:00;100376.53;;;12.65;98.83
21276;BME280;36472;52.170;20.884;2023-04-07T11:54:40;100378.00;;;12.69;98.58
21276;BME280;36472;52.170;20.884;2023-04-07T11:57:09;100378.81;;;12.70;98.94
21276;BME280;36472;52.170;20.884;2023-04-07T11:59:40;100372.94;;;12.66;99.47
21276;BME280;36472;52.170;20.884;2023-04-07T12:02:10;100378.81;;;12.70;99.29
21276;BME280;36472;52.170;20.884;2023-04-07T12:04:55;100375.53;;;12.55;100.00
21276;BME280;36472;52.170;20.884;2023-04-07T12:07:25;100383.16;;;12.47;100.00
21276;BME280;36472;52.170;20.884;2023-04-07T12:09:55;100378.56;;;12.38;100.00
21276;BME280;36472;52.170;20.884;2023-04-07T12:12:26;100384.78;;;12.37;100.00
21276;BME280;36472;52.170;20.884;2023-04-07T12:14:56;100380.19;;;12.27;100.00
21276;BME280;36472;52.170;20.884;2023-04-07T12:17:26;100381.47;;;12.22;100.00
21276;BME280;36472;52.170;20.884;2023-04-07T12:19:56;100382.81;;;12.27;100.00
21276;BME280;36472;52.170;20.884;2023-04-07T12:22:24;100376.94;;;12.24;100.00
21276;BME280;36472;52.170;20.884;2023-04-07T12:24:53;100386.69;;;12.34;100.00
21276;BME280;36472;52.170;20.884;2023-04-07T12:27:22;100387.69;;;12.45;100.00
21276;BME280;36472;52.170;20.884;2023-04-07T12:30:10;100383.81;;;12.62;100.00
21276;BME280;36472;52.170;20.884;2023-04-07T12:32:41;100394.72;;;12.57;100.00
21276;BME280;36472;52.170;20.884;2023-04-07T12:35:10;100390.41;;;12.56;100.00
21276;BME280;36472;52.170;20.884;2023-04-07T12:37:39;100395.59;;;12.69;100.00
21276;BME280;36472;52.170;20.884;2023-04-07T12:40:09;100398.00;;;12.72;100.00
21276;BME280;36472;52.170;20.884;2023-04-07T12:42:38;100394.88;;;12.67;100.00
21276;BME280;36472;52.170;20.884;2023-04-07T12:45:08;100401.09;;;12.66;100.00
21276;BME280;36472;52.170;20.884;2023-04-07T12:47:37;100414.41;;;12.64;100.00
21276;BME280;36472;52.170;20.884;2023-04-07T12:50:09;100411.41;;;12.69;100.00
21276;BME280;36472;52.170;20.884;2023-04-07T12:52:38;100414.75;;;12.95;100.00
21276;BME280;36472;52.170;20.884;2023-04-07T12:55:08;100410.09;;;12.99;100.00
21276;BME280;36472;52.170;20.884;2023-04-07T12:57:37;100413.66;;;12.98;100.00
21276;BME280;36472;52.170;20.884;2023-04-07T13:00:08;100411.84;;;12.87;97.23
21276;BME280;36472;52.170;20.884;2023-04-07T13:02:37;100422.19;;;12.90;95.04